ADDS METAR Data INFO
IDs: Format: Raw Decoded Include TAF

Data at: 0349 UTC 20 Nov 2017

METAR for:KFDY (Findlay Arpt, OH, US)
Text:KFDY 200253Z AUTO 25012KT 10SM OVC036 00/M04 A3006 RMK AO2 SLP183 T00001044 53015
Temperature: 0.0°C ( 32°F)
Dewpoint: -4.4°C ( 24°F) [RH = 72%]
Pressure (altimeter):30.06 inches Hg (1018.0 mb) [Sea level pressure: 1018.3 mb]
Winds:from the WSW (250 degrees) at 14 MPH (12 knots; 6.2 m/s)
Visibility:10 or more sm (16+ km)
Ceiling:3600 feet AGL
Clouds: overcast cloud deck at 3600 feet AGL
QC Flag:automated observation with no human augmentation